Time;durP1;ratioP1;P1;durP2;ratioP2;P2;SDS_P1;SDS_P2;PMS_P1;PMS_P2;Temp;Humidity;BMP_temperature;BMP_pressure;BME280_temperature;BME280_humidity;BME280_pressure;Samples;Min_cycle;Max_cycle;Signal;HPM_P1;HPM_P2
2024/03/19 00:00:49;;;;;;;26.93;14.07;;;9.40;99.90;;;;;;819901;175;26447;-79
2024/03/19 00:03:17;;;;;;;25.87;14.57;;;9.50;99.90;;;;;;819689;175;26540;-79
2024/03/19 00:05:44;;;;;;;25.00;13.40;;;9.50;99.90;;;;;;819234;174;26477;-79
2024/03/19 00:08:10;;;;;;;26.43;13.73;;;9.50;99.90;;;;;;819264;176;26416;-78
2024/03/19 00:10:37;;;;;;;26.67;13.70;;;9.40;99.90;;;;;;819204;176;26420;-80
2024/03/19 00:13:04;;;;;;;25.60;12.90;;;9.30;99.90;;;;;;819538;176;26408;-80
2024/03/19 00:15:30;;;;;;;24.80;12.63;;;9.30;99.90;;;;;;815979;174;26450;-79
2024/03/19 00:17:57;;;;;;;24.30;12.63;;;9.40;99.90;;;;;;824802;173;26424;-79
2024/03/19 00:20:24;;;;;;;25.90;13.60;;;9.50;99.90;;;;;;833579;171;26441;-79
2024/03/19 00:22:51;;;;;;;25.97;13.33;;;9.50;99.90;;;;;;822310;171;26388;-78
2024/03/19 00:25:19;;;;;;;24.50;12.63;;;9.60;99.90;;;;;;821292;175;26379;-79
2024/03/19 00:27:44;;;;;;;26.60;11.97;;;9.70;99.90;;;;;;821607;175;26372;-79
2024/03/19 00:30:13;;;;;;;32.37;15.27;;;9.70;99.90;;;;;;821788;175;26444;-79
2024/03/19 00:32:38;;;;;;;24.20;12.77;;;9.80;99.90;;;;;;821419;175;26408;-79
2024/03/19 00:35:08;;;;;;;25.90;12.37;;;9.80;99.90;;;;;;821581;175;26418;-80
2024/03/19 00:37:31;;;;;;;22.07;11.80;;;9.80;99.90;;;;;;821248;175;26381;-80
2024/03/19 00:39:58;;;;;;;23.17;12.13;;;9.90;99.90;;;;;;824786;173;26386;-80
2024/03/19 00:42:25;;;;;;;23.73;13.90;;;9.90;99.90;;;;;;823649;174;26383;-81
2024/03/19 00:44:52;;;;;;;23.53;12.07;;;9.90;99.90;;;;;;831450;171;26389;-81
2024/03/19 00:47:18;;;;;;;21.20;12.50;;;9.90;99.90;;;;;;834210;171;26398;-80
2024/03/19 00:49:45;;;;;;;24.03;13.13;;;9.90;99.90;;;;;;833741;171;26395;-79
2024/03/19 00:52:12;;;;;;;22.40;12.03;;;9.90;99.90;;;;;;827773;171;26393;-80
2024/03/19 00:54:38;;;;;;;27.27;13.10;;;9.90;99.90;;;;;;841808;171;26389;-80
2024/03/19 00:57:06;;;;;;;22.50;12.03;;;9.90;99.90;;;;;;840906;170;26366;-79
2024/03/19 00:59:32;;;;;;;23.47;12.97;;;9.90;99.90;;;;;;840397;171;26446;-80
2024/03/19 01:01:58;;;;;;;20.53;11.60;;;10.00;99.90;;;;;;840420;171;26374;-80
2024/03/19 01:04:25;;;;;;;27.83;13.93;;;9.90;99.90;;;;;;840566;170;26390;-81
2024/03/19 01:06:52;;;;;;;26.33;13.57;;;9.90;99.90;;;;;;840552;170;26410;-80
2024/03/19 01:09:19;;;;;;;28.90;14.23;;;9.80;99.90;;;;;;840521;171;26417;-80
2024/03/19 01:11:45;;;;;;;22.73;12.87;;;9.80;99.90;;;;;;840504;171;26377;-80
2024/03/19 01:14:11;;;;;;;22.90;12.70;;;9.70;99.90;;;;;;840507;171;26393;-79
2024/03/19 01:16:38;;;;;;;23.43;12.50;;;9.60;99.90;;;;;;839705;171;26398;-80
2024/03/19 01:19:04;;;;;;;23.70;12.57;;;9.50;99.90;;;;;;839901;170;26578;-80
2024/03/19 01:21:31;;;;;;;27.10;13.90;;;9.50;99.90;;;;;;839271;170;26378;-78
2024/03/19 01:23:58;;;;;;;23.23;13.07;;;9.40;99.90;;;;;;839024;171;26410;-79
2024/03/19 01:26:24;;;;;;;21.50;13.63;;;9.40;99.90;;;;;;831669;171;26508;-79
2024/03/19 01:28:51;;;;;;;23.77;12.83;;;9.40;99.90;;;;;;821532;175;26421;-79
2024/03/19 01:31:17;;;;;;;27.77;13.50;;;9.30;99.90;;;;;;821460;175;26368;-79
2024/03/19 01:33:44;;;;;;;23.80;13.47;;;9.30;99.90;;;;;;821481;175;26376;-80
2024/03/19 01:36:11;;;;;;;25.30;14.30;;;9.20;99.90;;;;;;821450;175;26518;-79
2024/03/19 01:38:37;;;;;;;25.07;13.83;;;9.20;99.90;;;;;;829010;171;26935;-80
2024/03/19 01:41:04;;;;;;;26.30;14.00;;;9.20;99.90;;;;;;838947;171;26365;-80
2024/03/19 01:43:31;;;;;;;24.27;14.13;;;9.20;99.90;;;;;;818662;176;26401;-80
2024/03/19 01:46:15;;;;;;;27.93;13.17;;;9.20;99.90;;;;;;810673;177;26430;-81
2024/03/19 01:48:41;;;;;;;22.37;13.83;;;9.20;99.90;;;;;;805702;176;26456;-78
2024/03/19 01:51:08;;;;;;;25.80;13.97;;;9.20;99.90;;;;;;830027;170;26392;-79
2024/03/19 01:53:35;;;;;;;25.87;13.07;;;9.20;99.90;;;;;;808828;175;26408;-80
2024/03/19 01:56:03;;;;;;;28.43;15.80;;;9.10;99.90;;;;;;800007;169;26669;-79
2024/03/19 01:58:30;;;;;;;28.53;14.33;;;9.10;99.90;;;;;;807384;176;26451;-79
2024/03/19 02:00:57;;;;;;;27.23;14.00;;;9.10;99.90;;;;;;807613;178;26420;-80
2024/03/19 02:03:25;;;;;;;30.03;14.80;;;9.10;99.90;;;;;;797746;179;26542;-79
2024/03/19 02:05:52;;;;;;;24.27;13.27;;;9.10;99.90;;;;;;795335;179;26476;-80
2024/03/19 02:08:19;;;;;;;28.17;14.00;;;9.00;99.90;;;;;;779573;182;26486;-79
2024/03/19 02:10:47;;;;;;;24.67;13.30;;;8.90;99.90;;;;;;790130;181;26595;-79
2024/03/19 02:13:12;;;;;;;26.83;14.13;;;9.00;99.90;;;;;;789917;179;26464;-80
2024/03/19 02:15:38;;;;;;;30.27;13.60;;;8.90;99.90;;;;;;789828;181;26492;-80
2024/03/19 02:18:06;;;;;;;24.20;13.23;;;8.90;99.90;;;;;;791441;181;26460;-79
2024/03/19 02:20:32;;;;;;;26.37;13.37;;;8.80;99.90;;;;;;789939;180;26471;-80
2024/03/19 02:22:58;;;;;;;23.13;14.47;;;8.80;99.90;;;;;;790971;181;26460;-80
2024/03/19 02:25:25;;;;;;;29.70;13.30;;;8.80;99.90;;;;;;782324;182;26508;-80
2024/03/19 02:27:51;;;;;;;23.00;12.60;;;8.80;99.90;;;;;;776941;183;27044;-80
2024/03/19 02:30:18;;;;;;;23.50;12.70;;;8.80;99.90;;;;;;787654;181;27012;-79
2024/03/19 02:32:45;;;;;;;26.33;13.43;;;8.80;99.90;;;;;;791532;180;27006;-79
2024/03/19 02:35:11;;;;;;;31.30;14.07;;;8.80;99.90;;;;;;789813;178;26481;-80
2024/03/19 02:37:38;;;;;;;24.67;13.43;;;8.80;99.90;;;;;;791698;181;27054;-81
2024/03/19 02:40:05;;;;;;;26.43;13.87;;;8.80;99.90;;;;;;789288;181;26452;-80
2024/03/19 02:42:32;;;;;;;26.20;13.97;;;8.80;99.90;;;;;;790715;180;26460;-79
2024/03/19 02:44:58;;;;;;;28.23;14.13;;;8.80;99.90;;;;;;792157;178;26471;-80
2024/03/19 02:47:25;;;;;;;28.40;14.40;;;8.80;99.90;;;;;;792729;178;26448;-80
2024/03/19 02:49:51;;;;;;;25.60;13.90;;;8.90;99.90;;;;;;790151;181;26440;-79
2024/03/19 02:52:18;;;;;;;31.23;15.70;;;8.80;99.90;;;;;;790905;177;26470;-80
2024/03/19 02:54:45;;;;;;;24.60;13.60;;;8.80;99.90;;;;;;783528;180;26508;-79
2024/03/19 02:57:11;;;;;;;27.37;14.10;;;8.80;99.90;;;;;;789676;181;26464;-80
2024/03/19 02:59:38;;;;;;;26.03;13.83;;;8.90;99.90;;;;;;790370;181;26472;-79
2024/03/19 03:02:04;;;;;;;23.23;13.90;;;8.90;99.90;;;;;;790873;180;27030;-80
2024/03/19 03:04:31;;;;;;;27.30;13.13;;;8.90;99.90;;;;;;779470;182;26472;-79
2024/03/19 03:06:58;;;;;;;27.83;13.80;;;9.00;99.90;;;;;;792912;180;26451;-79
2024/03/19 03:09:24;;;;;;;27.43;13.37;;;9.00;99.90;;;;;;792834;181;26468;-79
2024/03/19 03:11:51;;;;;;;27.60;14.90;;;9.00;99.90;;;;;;792080;181;26462;-80
2024/03/19 03:14:18;;;;;;;24.03;13.43;;;9.00;99.90;;;;;;789788;180;26451;-79
2024/03/19 03:16:44;;;;;;;23.50;13.60;;;9.00;99.90;;;;;;783700;182;26487;-80
2024/03/19 03:19:11;;;;;;;27.37;14.60;;;9.00;99.90;;;;;;792041;180;27065;-79
2024/03/19 03:21:38;;;;;;;25.87;13.20;;;9.00;99.90;;;;;;788512;180;26451;-79
2024/03/19 03:24:04;;;;;;;24.40;13.13;;;9.10;99.90;;;;;;783869;183;27039;-79
2024/03/19 03:26:31;;;;;;;28.97;12.80;;;9.10;99.90;;;;;;793310;180;26456;-79
2024/03/19 03:28:58;;;;;;;24.23;13.83;;;9.10;99.90;;;;;;792151;180;27029;-80
2024/03/19 03:31:27;;;;;;;23.40;13.10;;;9.00;99.90;;;;;;789678;180;26452;-79
2024/03/19 03:33:51;;;;;;;27.07;13.13;;;9.10;99.90;;;;;;792751;180;26450;-80
2024/03/19 03:36:17;;;;;;;23.83;13.13;;;9.10;99.90;;;;;;778833;182;26487;-79
2024/03/19 03:38:44;;;;;;;21.07;11.87;;;9.10;99.90;;;;;;790467;180;26458;-80
2024/03/19 03:41:11;;;;;;;26.40;13.13;;;9.10;99.90;;;;;;794327;180;26815;-80
2024/03/19 03:43:37;;;;;;;26.03;13.70;;;9.10;99.90;;;;;;791013;181;26483;-79
2024/03/19 03:46:04;;;;;;;24.50;12.90;;;9.10;99.90;;;;;;790571;181;26487;-79
2024/03/19 03:48:30;;;;;;;21.30;13.40;;;9.10;99.90;;;;;;794340;181;26464;-79
2024/03/19 03:50:57;;;;;;;28.90;12.87;;;9.10;99.90;;;;;;792433;181;27023;-79
2024/03/19 03:53:24;;;;;;;27.67;12.37;;;9.10;99.90;;;;;;791847;181;26446;-79
2024/03/19 03:55:50;;;;;;;23.50;13.13;;;9.10;99.90;;;;;;778298;183;26482;-81
2024/03/19 03:58:17;;;;;;;23.20;12.90;;;9.00;99.90;;;;;;779568;181;26390;-80
2024/03/19 04:00:44;;;;;;;24.17;12.93;;;9.00;99.90;;;;;;784631;177;26629;-80
2024/03/19 04:03:11;;;;;;;27.57;14.00;;;9.00;99.90;;;;;;790991;181;26455;-80
2024/03/19 04:05:37;;;;;;;24.27;12.53;;;9.00;99.90;;;;;;792013;181;26447;-81
2024/03/19 04:08:04;;;;;;;26.33;13.83;;;9.00;99.90;;;;;;790793;182;26460;-80
2024/03/19 04:10:31;;;;;;;27.93;13.33;;;9.00;99.90;;;;;;791123;181;26443;-80
2024/03/19 04:12:57;;;;;;;23.70;13.20;;;9.00;99.90;;;;;;791077;180;26451;-80
2024/03/19 04:15:24;;;;;;;22.80;12.87;;;9.00;99.90;;;;;;793199;181;26813;-80
2024/03/19 04:17:51;;;;;;;26.17;13.87;;;9.00;99.90;;;;;;793174;181;26457;-80
2024/03/19 04:20:20;;;;;;;26.90;14.17;;;9.00;99.90;;;;;;790991;181;26435;-80
2024/03/19 04:22:44;;;;;;;24.30;13.57;;;9.00;99.90;;;;;;780357;182;26481;-79
2024/03/19 04:25:10;;;;;;;23.73;13.03;;;9.00;99.90;;;;;;789779;179;26464;-82
2024/03/19 04:27:37;;;;;;;25.20;14.00;;;8.90;99.90;;;;;;781944;182;26451;-81
2024/03/19 04:30:05;;;;;;;24.67;12.73;;;9.00;99.90;;;;;;791505;181;26449;-81
2024/03/19 04:32:31;;;;;;;26.43;13.87;;;8.90;99.90;;;;;;792280;181;26462;-80
2024/03/19 04:34:57;;;;;;;24.47;13.33;;;8.80;99.90;;;;;;785006;182;26495;-82
2024/03/19 04:37:24;;;;;;;23.80;12.80;;;8.80;99.90;;;;;;788954;181;26438;-80
2024/03/19 04:39:51;;;;;;;26.27;13.77;;;8.70;99.90;;;;;;789629;177;26431;-80
2024/03/19 04:42:18;;;;;;;26.63;13.23;;;8.80;99.90;;;;;;784951;181;26543;-80
2024/03/19 04:44:46;;;;;;;28.73;14.30;;;8.70;99.90;;;;;;789920;179;26484;-80
2024/03/19 04:47:12;;;;;;;28.53;13.20;;;8.80;99.90;;;;;;781162;180;26473;-80
2024/03/19 04:49:38;;;;;;;25.30;13.17;;;8.80;99.90;;;;;;793916;180;26619;-80
2024/03/19 04:52:08;;;;;;;19.43;12.00;;;8.90;99.90;;;;;;792427;181;26443;-81
2024/03/19 04:54:34;;;;;;;30.20;15.40;;;8.90;99.90;;;;;;781286;183;26463;-79
2024/03/19 04:57:01;;;;;;;25.47;13.00;;;9.00;99.90;;;;;;786033;178;26498;-80
2024/03/19 04:59:27;;;;;;;26.93;14.00;;;9.00;99.90;;;;;;793188;180;26448;-80
2024/03/19 05:01:54;;;;;;;23.97;12.97;;;9.00;99.90;;;;;;791866;180;26465;-79
2024/03/19 05:04:22;;;;;;;26.03;13.50;;;9.00;99.90;;;;;;792158;180;26504;-80
2024/03/19 05:06:48;;;;;;;26.00;12.37;;;9.00;99.90;;;;;;791364;180;26448;-78
2024/03/19 05:09:15;;;;;;;20.37;13.10;;;8.90;99.90;;;;;;788613;181;26449;-76
2024/03/19 05:11:42;;;;;;;23.33;13.30;;;9.00;99.90;;;;;;789109;177;26503;-80
2024/03/19 05:14:08;;;;;;;24.57;12.57;;;9.10;99.90;;;;;;783607;183;26552;-80
2024/03/19 05:16:36;;;;;;;26.67;13.90;;;9.10;99.90;;;;;;789912;181;26576;-80
2024/03/19 05:19:04;;;;;;;27.97;13.53;;;9.00;99.90;;;;;;787144;177;26481;-80
2024/03/19 05:21:30;;;;;;;24.50;13.67;;;9.00;99.90;;;;;;787048;181;26471;-81
2024/03/19 05:23:57;;;;;;;24.90;12.47;;;9.00;99.90;;;;;;790958;181;26481;-80
2024/03/19 05:26:24;;;;;;;27.40;13.17;;;9.00;99.90;;;;;;778948;180;26484;-80
2024/03/19 05:28:52;;;;;;;24.83;12.63;;;9.00;99.90;;;;;;790426;181;26638;-80
2024/03/19 05:31:20;;;;;;;28.13;14.53;;;9.00;99.90;;;;;;791509;181;26628;-80
2024/03/19 05:33:52;;;;;;;22.93;12.70;;;9.00;99.90;;;;;;791145;181;26456;-79
2024/03/19 05:36:23;;;;;;;27.80;13.67;;;9.00;99.90;;;;;;792835;179;26463;-80
2024/03/19 05:38:49;;;;;;;24.63;13.23;;;9.00;99.90;;;;;;791072;181;26424;-80
2024/03/19 05:41:16;;;;;;;27.63;12.87;;;9.00;99.90;;;;;;791689;177;27024;-80
2024/03/19 05:43:43;;;;;;;28.73;13.33;;;9.00;99.90;;;;;;781041;182;26496;-80
2024/03/19 05:46:10;;;;;;;22.30;12.30;;;9.10;99.90;;;;;;792129;178;26449;-80
2024/03/19 05:48:37;;;;;;;28.47;12.73;;;9.10;99.90;;;;;;793811;180;26442;-81
2024/03/19 05:51:04;;;;;;;26.30;12.80;;;9.20;99.90;;;;;;792540;180;26468;-80
2024/03/19 05:53:31;;;;;;;29.37;14.30;;;9.20;99.90;;;;;;795352;178;26476;-80
2024/03/19 05:56:01;;;;;;;27.57;13.80;;;9.20;99.90;;;;;;791777;180;26455;-81
2024/03/19 05:58:29;;;;;;;26.00;13.20;;;9.20;99.90;;;;;;767382;183;27054;-80
2024/03/19 06:00:58;;;;;;;27.20;14.07;;;9.20;99.90;;;;;;789575;181;26474;-80
2024/03/19 06:03:27;;;;;;;28.67;14.77;;;9.20;99.90;;;;;;791297;177;27031;-79
2024/03/19 06:06:09;;;;;;;27.30;13.73;;;9.30;99.90;;;;;;775004;183;26486;-79
2024/03/19 06:08:50;;;;;;;24.83;12.63;;;9.30;99.90;;;;;;793554;180;26467;-80
2024/03/19 06:11:24;;;;;;;25.50;13.63;;;9.30;99.90;;;;;;792897;180;27037;-78
2024/03/19 06:13:53;;;;;;;28.80;14.00;;;9.20;99.90;;;;;;791523;181;26431;-80
2024/03/19 06:16:21;;;;;;;25.23;13.07;;;9.10;99.90;;;;;;794067;179;27028;-81
2024/03/19 06:18:49;;;;;;;28.03;12.80;;;9.10;99.90;;;;;;791722;178;26428;-81
2024/03/19 06:21:15;;;;;;;22.73;12.90;;;9.10;99.90;;;;;;790278;181;26593;-78
2024/03/19 06:23:42;;;;;;;29.63;12.90;;;9.10;99.90;;;;;;782731;183;26487;-80
2024/03/19 06:26:17;;;;;;;24.73;12.47;;;9.10;99.90;;;;;;788595;179;26482;-81
2024/03/19 06:28:47;;;;;;;22.67;12.57;;;9.20;99.90;;;;;;789950;179;26479;-80
2024/03/19 06:31:15;;;;;;;25.63;13.30;;;9.30;99.90;;;;;;791248;181;26484;-80
2024/03/19 06:33:48;;;;;;;24.07;12.80;;;9.40;99.90;;;;;;770174;186;26494;-80
2024/03/19 06:36:21;;;;;;;25.77;13.43;;;9.50;99.90;;;;;;791228;178;26477;-80
2024/03/19 06:38:48;;;;;;;25.07;13.07;;;9.50;99.90;;;;;;757113;184;27112;-82
2024/03/19 06:41:15;;;;;;;25.93;12.73;;;9.60;99.90;;;;;;791713;179;26459;-80
2024/03/19 06:43:47;;;;;;;26.33;13.43;;;9.70;99.90;;;;;;793585;176;26479;-79
2024/03/19 06:46:22;;;;;;;20.90;12.67;;;9.80;99.90;;;;;;769648;183;26512;-79
2024/03/19 06:48:49;;;;;;;24.90;13.37;;;9.80;99.90;;;;;;789880;181;26469;-81
2024/03/19 06:51:16;;;;;;;27.30;13.17;;;9.90;99.90;;;;;;784663;182;26559;-80
2024/03/19 06:53:43;;;;;;;24.77;13.53;;;9.90;99.90;;;;;;790401;181;26469;-81
2024/03/19 06:56:12;;;;;;;27.20;13.37;;;9.90;99.90;;;;;;792897;180;26452;-81
2024/03/19 06:58:39;;;;;;;25.27;13.87;;;9.90;99.90;;;;;;791473;181;26435;-81
2024/03/19 07:01:05;;;;;;;26.00;13.57;;;9.80;99.90;;;;;;791320;181;26444;-80
2024/03/19 07:03:33;;;;;;;25.37;13.37;;;9.70;99.90;;;;;;791641;180;26456;-80
2024/03/19 07:06:01;;;;;;;25.27;13.43;;;9.80;99.90;;;;;;789065;177;26494;-80
2024/03/19 07:08:26;;;;;;;23.27;13.10;;;9.80;99.90;;;;;;789001;181;26451;-80
2024/03/19 07:10:54;;;;;;;23.50;14.07;;;9.90;99.90;;;;;;791256;181;26457;-80
2024/03/19 07:13:20;;;;;;;28.73;13.80;;;10.10;99.90;;;;;;791433;181;26436;-80
2024/03/19 07:15:47;;;;;;;22.23;12.57;;;10.20;99.90;;;;;;789630;177;26477;-80
2024/03/19 07:18:13;;;;;;;22.77;12.87;;;10.20;99.90;;;;;;781838;183;26470;-80
2024/03/19 07:20:40;;;;;;;20.30;12.40;;;10.20;99.90;;;;;;788989;181;26483;-78
2024/03/19 07:23:07;;;;;;;27.23;13.23;;;10.30;99.90;;;;;;783809;183;26470;-80
2024/03/19 07:25:33;;;;;;;24.93;13.23;;;10.40;99.90;;;;;;792742;180;26460;-81
2024/03/19 07:28:00;;;;;;;28.03;12.83;;;10.60;99.90;;;;;;777683;182;26563;-80
2024/03/19 07:30:27;;;;;;;31.57;13.10;;;10.60;99.90;;;;;;790576;182;26453;-80
2024/03/19 07:32:55;;;;;;;21.93;12.13;;;10.60;99.90;;;;;;774290;181;26438;-79
2024/03/19 07:35:20;;;;;;;22.47;12.30;;;10.60;99.90;;;;;;791215;180;26461;-80
2024/03/19 07:37:49;;;;;;;24.87;11.83;;;10.80;99.90;;;;;;789431;181;26516;-79
2024/03/19 07:40:14;;;;;;;24.50;11.67;;;10.80;99.90;;;;;;780881;183;26623;-80
2024/03/19 07:42:41;;;;;;;27.17;13.10;;;10.80;99.90;;;;;;785183;181;26577;-80
2024/03/19 07:45:11;;;;;;;21.10;12.47;;;10.90;99.90;;;;;;792598;178;26468;-81
2024/03/19 07:47:40;;;;;;;27.90;13.17;;;10.90;99.90;;;;;;791948;179;26485;-80
2024/03/19 07:50:08;;;;;;;28.80;12.50;;;11.00;99.90;;;;;;796840;180;26444;-80
2024/03/19 07:52:34;;;;;;;25.87;12.40;;;11.20;99.90;;;;;;792719;178;26454;-80
2024/03/19 07:55:01;;;;;;;23.67;11.90;;;11.40;99.90;;;;;;790581;180;26460;-80
2024/03/19 07:57:28;;;;;;;24.80;12.23;;;11.50;99.90;;;;;;803897;172;26453;-82
2024/03/19 07:59:55;;;;;;;23.70;11.73;;;11.50;99.90;;;;;;829766;173;26408;-85
2024/03/19 08:02:21;;;;;;;21.83;11.60;;;11.60;99.90;;;;;;831667;172;26406;-87
2024/03/19 08:04:49;;;;;;;28.80;12.17;;;11.60;99.90;;;;;;832159;173;26416;-85
2024/03/19 08:07:24;;;;;;;24.53;12.60;;;11.50;99.90;;;;;;796708;175;26568;-84
2024/03/19 08:10:13;;;;;;;20.77;11.90;;;11.20;99.90;;;;;;787436;176;26455;-86
2024/03/19 08:12:44;;;;;;;25.80;11.93;;;11.30;99.90;;;;;;800876;180;26987;-82
2024/03/19 08:15:13;;;;;;;24.17;12.67;;;11.50;99.90;;;;;;832712;172;26470;-81
2024/03/19 08:17:42;;;;;;;27.27;11.90;;;11.60;99.90;;;;;;832466;170;26440;-82
2024/03/19 08:20:14;;;;;;;27.50;11.77;;;11.70;99.90;;;;;;833382;171;26402;-82
2024/03/19 08:22:43;;;;;;;23.30;12.37;;;11.70;99.90;;;;;;834615;172;26370;-83
2024/03/19 08:25:19;;;;;;;22.43;12.13;;;11.70;99.90;;;;;;833271;171;26551;-82
2024/03/19 08:27:47;;;;;;;28.17;12.97;;;11.70;99.90;;;;;;832631;171;26412;-83
2024/03/19 08:30:23;;;;;;;25.37;13.00;;;11.60;99.90;;;;;;832406;172;26563;-82
2024/03/19 08:32:55;;;;;;;23.37;12.53;;;11.80;99.90;;;;;;832945;172;26403;-85
2024/03/19 08:35:24;;;;;;;28.43;12.97;;;12.00;99.90;;;;;;831898;172;26386;-85
2024/03/19 08:37:57;;;;;;;22.70;12.47;;;12.10;99.90;;;;;;830620;172;26445;-85
2024/03/19 08:40:27;;;;;;;23.37;12.83;;;12.30;99.90;;;;;;834678;171;26405;-85
2024/03/19 08:42:54;;;;;;;24.60;12.53;;;12.30;99.90;;;;;;830344;172;26402;-84
2024/03/19 08:45:29;;;;;;;26.63;12.93;;;12.10;99.90;;;;;;837196;172;26402;-86
2024/03/19 08:47:59;;;;;;;23.73;11.67;;;12.30;99.90;;;;;;835872;172;26445;-85
2024/03/19 08:50:30;;;;;;;23.63;11.60;;;12.30;99.90;;;;;;833607;170;26428;-85
2024/03/19 08:55:37;;;;;;;19.97;11.47;;;12.40;99.90;;;;;;834403;172;26398;-85
2024/03/19 08:58:07;;;;;;;22.10;12.13;;;12.40;99.90;;;;;;833152;172;26450;-82
2024/03/19 09:00:37;;;;;;;22.93;12.33;;;12.00;99.90;;;;;;835094;171;26383;-86
2024/03/19 09:03:09;;;;;;;27.43;12.33;;;11.80;99.90;;;;;;837645;171;26432;-85
2024/03/19 09:05:38;;;;;;;28.47;11.67;;;11.90;99.90;;;;;;836747;170;26389;-84
2024/03/19 09:08:09;;;;;;;20.73;11.70;;;12.10;99.90;;;;;;833991;172;26416;-83
2024/03/19 09:10:37;;;;;;;27.30;11.37;;;12.30;99.90;;;;;;836759;172;26430;-84
2024/03/19 09:13:19;;;;;;;19.43;11.93;;;12.30;99.90;;;;;;836480;172;26381;-82
2024/03/19 09:15:48;;;;;;;24.77;11.63;;;12.40;99.90;;;;;;822505;172;26418;-82
2024/03/19 09:18:22;;;;;;;24.93;11.47;;;12.60;99.90;;;;;;834244;170;26980;-82
2024/03/19 09:20:57;;;;;;;21.50;11.73;;;12.70;99.90;;;;;;833540;172;26982;-82
2024/03/19 09:23:30;;;;;;;25.00;11.77;;;12.90;99.90;;;;;;833933;170;26393;-84
2024/03/19 09:26:03;;;;;;;19.77;12.23;;;13.10;99.90;;;;;;834102;172;26964;-81
2024/03/19 09:28:32;;;;;;;24.63;12.10;;;13.40;99.90;;;;;;832812;172;26411;-82
2024/03/19 09:31:04;;;;;;;19.07;11.30;;;13.70;99.90;;;;;;832148;171;26405;-82
2024/03/19 09:33:33;;;;;;;21.80;10.70;;;13.80;99.90;;;;;;831703;170;26394;-83
2024/03/19 09:36:04;;;;;;;19.77;10.77;;;14.10;99.90;;;;;;834677;172;26395;-83
2024/03/19 09:38:32;;;;;;;20.40;10.57;;;14.40;99.90;;;;;;830689;172;26410;-83
2024/03/19 09:41:10;;;;;;;18.00;10.30;;;14.60;99.90;;;;;;829834;172;26382;-84
2024/03/19 09:43:49;;;;;;;19.77;10.23;;;14.80;99.90;;;;;;829926;172;27003;-82
2024/03/19 09:46:20;;;;;;;22.17;10.97;;;14.70;99.90;;;;;;832369;172;26470;-81
2024/03/19 09:48:58;;;;;;;19.90;10.87;;;14.70;99.90;;;;;;831986;171;26405;-85
2024/03/19 09:51:25;;;;;;;19.57;10.03;;;14.90;99.90;;;;;;827763;170;26453;-83
2024/03/19 09:53:52;;;;;;;18.07;10.00;;;15.00;99.90;;;;;;833576;172;26395;-83
2024/03/19 09:56:23;;;;;;;21.90;11.67;;;14.90;99.90;;;;;;833355;172;26972;-83
2024/03/19 09:58:52;;;;;;;20.00;11.30;;;14.90;99.90;;;;;;831892;171;26470;-82
2024/03/19 10:01:22;;;;;;;15.33;9.90;;;14.90;99.90;;;;;;833570;172;26381;-82
2024/03/19 10:04:00;;;;;;;17.27;10.30;;;15.00;99.90;;;;;;812016;176;26473;-82
2024/03/19 10:06:30;;;;;;;21.80;10.00;;;15.30;99.90;;;;;;797962;180;26440;-82
2024/03/19 10:08:59;;;;;;;24.20;10.87;;;15.50;99.90;;;;;;834653;172;26418;-82
2024/03/19 10:11:37;;;;;;;21.73;10.77;;;15.60;99.90;;;;;;834764;170;26539;-83
2024/03/19 10:14:11;;;;;;;17.23;9.37;;;15.50;99.90;;;;;;835774;171;27961;-82
2024/03/19 10:16:50;;;;;;;19.10;10.30;;;15.10;99.90;;;;;;814926;176;26418;-80
2024/03/19 10:19:15;;;;;;;17.93;9.40;;;14.70;99.90;;;;;;836609;170;26467;-82
2024/03/19 10:21:47;;;;;;;17.17;10.20;;;14.60;99.90;;;;;;815194;172;26575;-86
2024/03/19 10:24:21;;;;;;;16.67;9.33;;;14.80;99.90;;;;;;797542;180;26447;-81
2024/03/19 10:26:49;;;;;;;20.60;8.27;;;14.90;99.90;;;;;;836048;171;27002;-80
2024/03/19 10:29:19;;;;;;;16.00;8.20;;;15.10;99.90;;;;;;833648;172;26422;-79
2024/03/19 10:31:48;;;;;;;17.00;8.50;;;15.30;99.90;;;;;;812586;176;26624;-80
2024/03/19 10:34:20;;;;;;;17.60;8.33;;;15.60;99.90;;;;;;809957;174;26421;-83
2024/03/19 10:36:50;;;;;;;17.00;8.30;;;15.70;99.90;;;;;;801602;178;26412;-82
2024/03/19 10:39:35;;;;;;;16.47;8.80;;;15.70;99.90;;;;;;802127;177;26433;-82
2024/03/19 10:42:06;;;;;;;18.43;8.00;;;16.10;99.90;;;;;;803181;178;26439;-83
2024/03/19 10:44:40;;;;;;;16.33;7.63;;;16.60;99.70;;;;;;830201;171;26519;-83
2024/03/19 10:47:14;;;;;;;18.47;8.27;;;16.70;99.10;;;;;;815480;175;26521;-82
2024/03/19 10:49:50;;;;;;;12.50;7.57;;;16.60;99.40;;;;;;832514;171;26418;-84
2024/03/19 10:55:03;;;;;;;11.87;7.03;;;17.50;98.80;;;;;;799554;180;26463;-85
2024/03/19 10:57:53;;;;;;;12.43;7.00;;;18.40;96.30;;;;;;833533;172;26402;-83
2024/03/19 11:00:24;;;;;;;12.03;5.57;;;19.20;89.20;;;;;;835524;171;26406;-83
2024/03/19 11:05:45;;;;;;;12.10;5.53;;;19.00;87.50;;;;;;810203;174;26414;-83
2024/03/19 11:08:23;;;;;;;9.87;5.10;;;19.40;87.10;;;;;;831942;172;26386;-84
2024/03/19 11:11:18;;;;;;;11.20;5.00;;;20.10;77.00;;;;;;810596;174;26427;-85
2024/03/19 11:14:02;;;;;;;14.90;6.60;;;20.90;73.90;;;;;;834062;170;26417;-84
2024/03/19 11:16:58;;;;;;;9.37;4.63;;;21.80;66.60;;;;;;814185;174;26398;-84
2024/03/19 11:25:06;;;;;;;10.43;4.40;;;20.00;69.60;;;;;;804111;176;26437;-81
2024/03/19 11:27:42;;;;;;;12.27;4.20;;;19.90;75.80;;;;;;837714;171;26450;-82
2024/03/19 11:38:58;;;;;;;6.73;3.30;;;22.00;51.80;;;;;;760450;169;26457;-86
2024/03/19 11:41:57;;;;;;;8.23;3.17;;;21.70;52.90;;;;;;808936;177;26468;-87
2024/03/19 11:47:19;;;;;;;11.27;3.60;;;21.80;58.50;;;;;;808797;178;26477;-86
2024/03/19 11:49:46;;;;;;;8.33;4.43;;;22.30;57.40;;;;;;810273;177;26449;-87
2024/03/19 11:52:21;;;;;;;10.33;3.83;;;23.00;56.80;;;;;;801458;177;26447;-87
2024/03/19 11:54:49;;;;;;;9.17;3.90;;;23.50;48.90;;;;;;805166;179;26449;-86
2024/03/19 11:57:18;;;;;;;7.60;3.57;;;23.40;52.10;;;;;;793991;178;26473;-87
2024/03/19 11:59:45;;;;;;;8.80;3.77;;;23.50;52.20;;;;;;792825;180;26461;-86
2024/03/19 12:02:13;;;;;;;8.00;3.40;;;23.80;47.20;;;;;;805735;178;26573;-86
2024/03/19 12:04:40;;;;;;;9.37;3.80;;;23.70;47.60;;;;;;800956;178;26464;-85
2024/03/19 12:07:06;;;;;;;7.37;3.30;;;23.70;46.70;;;;;;794458;180;26432;-85
2024/03/19 12:09:33;;;;;;;7.10;3.10;;;23.40;46.40;;;;;;790156;179;26444;-86
2024/03/19 12:12:00;;;;;;;7.30;3.00;;;23.50;49.00;;;;;;794386;180;26464;-86
2024/03/19 12:14:42;;;;;;;6.83;3.30;;;22.70;45.30;;;;;;794767;180;26447;-87
2024/03/19 12:17:08;;;;;;;7.23;3.00;;;22.40;47.40;;;;;;794436;178;26448;-86
2024/03/19 12:19:35;;;;;;;7.70;3.50;;;21.20;49.50;;;;;;794283;181;26499;-85
2024/03/19 12:22:02;;;;;;;8.93;3.40;;;20.90;56.80;;;;;;801836;179;26437;-86
2024/03/19 12:24:28;;;;;;;14.37;3.40;;;22.00;51.50;;;;;;799409;177;26467;-87
2024/03/19 12:26:56;;;;;;;11.27;3.40;;;22.10;55.00;;;;;;802515;179;26427;-87
2024/03/19 12:29:24;;;;;;;10.33;3.80;;;22.90;49.70;;;;;;803420;178;26442;-86
2024/03/19 12:31:52;;;;;;;11.67;4.90;;;22.70;51.60;;;;;;803150;178;26483;-84
2024/03/19 12:36:51;;;;;;;13.73;3.60;;;23.80;49.90;;;;;;801170;179;26413;-85
2024/03/19 12:39:17;;;;;;;8.77;4.30;;;23.50;46.10;;;;;;801948;176;26449;-85
2024/03/19 12:41:44;;;;;;;9.43;4.67;;;24.20;50.60;;;;;;809904;177;26425;-85
2024/03/19 12:44:11;;;;;;;13.40;4.37;;;24.80;45.30;;;;;;808484;175;26433;-86
2024/03/19 12:46:38;;;;;;;10.00;3.50;;;25.00;48.00;;;;;;808532;178;26433;-85
2024/03/19 12:49:06;;;;;;;15.37;7.77;;;25.50;40.60;;;;;;808700;178;26584;-86
2024/03/19 12:51:32;;;;;;;8.07;3.53;;;24.70;43.70;;;;;;808211;178;26961;-85
2024/03/19 12:53:58;;;;;;;8.60;3.00;;;24.90;42.20;;;;;;808036;178;26446;-85
2024/03/19 12:56:25;;;;;;;10.10;4.07;;;26.00;43.20;;;;;;807763;178;26422;-85
2024/03/19 12:58:51;;;;;;;9.43;3.33;;;26.40;42.10;;;;;;809020;177;26436;-86
2024/03/19 13:01:18;;;;;;;7.57;3.20;;;26.90;36.60;;;;;;808663;176;26957;-86
2024/03/19 13:03:45;;;;;;;7.20;3.43;;;26.90;39.80;;;;;;783938;182;26486;-86
2024/03/19 13:06:11;;;;;;;8.20;3.20;;;27.50;36.60;;;;;;796384;179;26481;-85
2024/03/19 13:08:38;;;;;;;8.50;3.30;;;26.70;35.60;;;;;;820158;174;26436;-85
2024/03/19 13:11:04;;;;;;;8.27;3.40;;;24.40;40.10;;;;;;817456;176;26455;-86